sensor_id;sensor_type;location;lat;lon;timestamp;temperature;humidity
36990;DHT22;22898;52.102;5.776;2023-05-10T00:00:08;22.20;99.90
36990;DHT22;22898;52.102;5.776;2023-05-10T00:02:35;22.20;99.90
36990;DHT22;22898;52.102;5.776;2023-05-10T00:05:01;22.10;99.90
36990;DHT22;22898;52.102;5.776;2023-05-10T00:07:26;22.20;99.90
36990;DHT22;22898;52.102;5.776;2023-05-10T00:09:52;22.30;99.90
36990;DHT22;22898;52.102;5.776;2023-05-10T00:12:17;22.40;99.90
36990;DHT22;22898;52.102;5.776;2023-05-10T00:14:43;22.40;99.90
36990;DHT22;22898;52.102;5.776;2023-05-10T00:17:08;22.40;99.90
36990;DHT22;22898;52.102;5.776;2023-05-10T00:19:34;22.40;99.90
36990;DHT22;22898;52.102;5.776;2023-05-10T00:22:00;22.40;99.90
36990;DHT22;22898;52.102;5.776;2023-05-10T00:24:25;22.50;99.90
36990;DHT22;22898;52.102;5.776;2023-05-10T00:26:51;22.50;99.90
36990;DHT22;22898;52.102;5.776;2023-05-10T00:29:16;22.50;99.90
36990;DHT22;22898;52.102;5.776;2023-05-10T00:31:42;22.60;99.90
36990;DHT22;22898;52.102;5.776;2023-05-10T00:34:07;22.50;99.90
36990;DHT22;22898;52.102;5.776;2023-05-10T00:36:33;22.60;99.90
36990;DHT22;22898;52.102;5.776;2023-05-10T00:38:58;22.60;99.90
36990;DHT22;22898;52.102;5.776;2023-05-10T00:41:24;22.60;99.90
36990;DHT22;22898;52.102;5.776;2023-05-10T00:43:50;22.60;99.90
36990;DHT22;22898;52.102;5.776;2023-05-10T00:46:17;22.40;99.90
36990;DHT22;22898;52.102;5.776;2023-05-10T00:48:43;22.40;99.90
36990;DHT22;22898;52.102;5.776;2023-05-10T00:51:10;22.30;99.90
36990;DHT22;22898;52.102;5.776;2023-05-10T00:53:35;22.20;99.90
36990;DHT22;22898;52.102;5.776;2023-05-10T00:56:01;22.20;99.90
36990;DHT22;22898;52.102;5.776;2023-05-10T00:58:28;22.30;99.90
36990;DHT22;22898;52.102;5.776;2023-05-10T01:00:56;22.40;99.90
36990;DHT22;22898;52.102;5.776;2023-05-10T01:03:23;22.50;99.90
36990;DHT22;22898;52.102;5.776;2023-05-10T01:05:49;22.40;99.90
36990;DHT22;22898;52.102;5.776;2023-05-10T01:08:15;22.50;99.90
36990;DHT22;22898;52.102;5.776;2023-05-10T01:10:42;22.40;99.90
36990;DHT22;22898;52.102;5.776;2023-05-10T01:13:08;22.20;99.90
36990;DHT22;22898;52.102;5.776;2023-05-10T01:15:34;22.00;99.90
36990;DHT22;22898;52.102;5.776;2023-05-10T01:18:02;21.90;99.90
36990;DHT22;22898;52.102;5.776;2023-05-10T01:20:35;22.10;99.90
36990;DHT22;22898;52.102;5.776;2023-05-10T01:23:30;22.10;99.90
36990;DHT22;22898;52.102;5.776;2023-05-10T01:26:12;22.10;99.90
36990;DHT22;22898;52.102;5.776;2023-05-10T01:31:29;21.60;99.90
36990;DHT22;22898;52.102;5.776;2023-05-10T01:34:08;21.60;99.90
36990;DHT22;22898;52.102;5.776;2023-05-10T01:36:45;21.70;99.90
36990;DHT22;22898;52.102;5.776;2023-05-10T01:39:20;21.80;99.90
36990;DHT22;22898;52.102;5.776;2023-05-10T01:42:10;22.00;99.90
36990;DHT22;22898;52.102;5.776;2023-05-10T01:44:46;22.10;99.90
36990;DHT22;22898;52.102;5.776;2023-05-10T01:47:28;21.70;99.90
36990;DHT22;22898;52.102;5.776;2023-05-10T01:49:56;21.40;99.90
36990;DHT22;22898;52.102;5.776;2023-05-10T01:52:28;21.40;99.90
36990;DHT22;22898;52.102;5.776;2023-05-10T01:54:58;21.40;99.90
36990;DHT22;22898;52.102;5.776;2023-05-10T01:57:27;21.30;99.90
36990;DHT22;22898;52.102;5.776;2023-05-10T01:59:57;21.10;99.90
36990;DHT22;22898;52.102;5.776;2023-05-10T02:02:24;21.20;99.90
36990;DHT22;22898;52.102;5.776;2023-05-10T02:04:52;20.90;99.90
36990;DHT22;22898;52.102;5.776;2023-05-10T02:07:19;21.00;99.90
36990;DHT22;22898;52.102;5.776;2023-05-10T02:09:46;21.20;99.90
36990;DHT22;22898;52.102;5.776;2023-05-10T02:12:13;21.00;99.90
36990;DHT22;22898;52.102;5.776;2023-05-10T02:14:41;20.90;99.90
36990;DHT22;22898;52.102;5.776;2023-05-10T02:17:08;20.80;99.90
36990;DHT22;22898;52.102;5.776;2023-05-10T02:19:36;20.20;99.90
36990;DHT22;22898;52.102;5.776;2023-05-10T02:22:04;20.40;99.90
36990;DHT22;22898;52.102;5.776;2023-05-10T02:24:31;20.50;99.90
36990;DHT22;22898;52.102;5.776;2023-05-10T02:26:57;20.50;99.90
36990;DHT22;22898;52.102;5.776;2023-05-10T02:29:25;20.30;99.90
36990;DHT22;22898;52.102;5.776;2023-05-10T02:31:53;20.40;99.90
36990;DHT22;22898;52.102;5.776;2023-05-10T02:34:21;20.20;99.90
36990;DHT22;22898;52.102;5.776;2023-05-10T02:36:48;20.30;99.90
36990;DHT22;22898;52.102;5.776;2023-05-10T02:39:14;20.30;99.90
36990;DHT22;22898;52.102;5.776;2023-05-10T02:41:42;19.90;99.90
36990;DHT22;22898;52.102;5.776;2023-05-10T02:44:09;19.50;99.90
36990;DHT22;22898;52.102;5.776;2023-05-10T02:46:36;19.50;99.90
36990;DHT22;22898;52.102;5.776;2023-05-10T02:49:03;19.90;99.90
36990;DHT22;22898;52.102;5.776;2023-05-10T02:51:31;20.30;99.90
36990;DHT22;22898;52.102;5.776;2023-05-10T02:54:19;20.60;99.90
36990;DHT22;22898;52.102;5.776;2023-05-10T02:56:56;20.60;99.90
36990;DHT22;22898;52.102;5.776;2023-05-10T02:59:22;20.70;99.90
36990;DHT22;22898;52.102;5.776;2023-05-10T03:01:48;20.80;99.90
36990;DHT22;22898;52.102;5.776;2023-05-10T03:04:13;21.10;99.90
36990;DHT22;22898;52.102;5.776;2023-05-10T03:06:39;21.30;99.90
36990;DHT22;22898;52.102;5.776;2023-05-10T03:09:05;21.40;99.90
36990;DHT22;22898;52.102;5.776;2023-05-10T03:16:51;20.90;99.90
36990;DHT22;22898;52.102;5.776;2023-05-10T03:19:24;21.00;99.90
36990;DHT22;22898;52.102;5.776;2023-05-10T03:21:52;20.50;99.90
36990;DHT22;22898;52.102;5.776;2023-05-10T03:24:21;20.50;99.90
36990;DHT22;22898;52.102;5.776;2023-05-10T03:26:49;20.10;99.90
36990;DHT22;22898;52.102;5.776;2023-05-10T03:29:15;19.90;99.90
36990;DHT22;22898;52.102;5.776;2023-05-10T03:31:42;20.20;99.90
36990;DHT22;22898;52.102;5.776;2023-05-10T03:34:08;20.60;99.90
36990;DHT22;22898;52.102;5.776;2023-05-10T03:36:33;20.80;99.90
36990;DHT22;22898;52.102;5.776;2023-05-10T03:38:59;20.50;99.90
36990;DHT22;22898;52.102;5.776;2023-05-10T03:41:25;19.90;99.90
36990;DHT22;22898;52.102;5.776;2023-05-10T03:43:51;19.60;99.90
36990;DHT22;22898;52.102;5.776;2023-05-10T03:46:16;19.40;99.90
36990;DHT22;22898;52.102;5.776;2023-05-10T03:48:42;19.40;99.90
36990;DHT22;22898;52.102;5.776;2023-05-10T03:51:08;19.40;99.90
36990;DHT22;22898;52.102;5.776;2023-05-10T03:53:33;19.30;99.90
36990;DHT22;22898;52.102;5.776;2023-05-10T03:55:59;19.60;99.90
36990;DHT22;22898;52.102;5.776;2023-05-10T03:58:25;19.80;99.90
36990;DHT22;22898;52.102;5.776;2023-05-10T04:00:51;19.20;99.90
36990;DHT22;22898;52.102;5.776;2023-05-10T04:03:17;18.90;99.90
36990;DHT22;22898;52.102;5.776;2023-05-10T04:05:43;18.50;99.90
36990;DHT22;22898;52.102;5.776;2023-05-10T04:08:08;18.50;99.90
36990;DHT22;22898;52.102;5.776;2023-05-10T04:10:34;18.70;99.90
36990;DHT22;22898;52.102;5.776;2023-05-10T04:13:00;18.60;99.90
36990;DHT22;22898;52.102;5.776;2023-05-10T04:15:26;18.80;99.90
36990;DHT22;22898;52.102;5.776;2023-05-10T04:17:51;18.90;99.90
36990;DHT22;22898;52.102;5.776;2023-05-10T04:20:17;18.80;99.90
36990;DHT22;22898;52.102;5.776;2023-05-10T04:22:42;19.00;99.90
36990;DHT22;22898;52.102;5.776;2023-05-10T04:25:08;19.00;99.90
36990;DHT22;22898;52.102;5.776;2023-05-10T04:27:34;19.00;99.90
36990;DHT22;22898;52.102;5.776;2023-05-10T04:29:59;19.10;99.90
36990;DHT22;22898;52.102;5.776;2023-05-10T04:32:25;18.50;99.90
36990;DHT22;22898;52.102;5.776;2023-05-10T04:34:51;18.20;99.90
36990;DHT22;22898;52.102;5.776;2023-05-10T04:37:17;18.40;99.90
36990;DHT22;22898;52.102;5.776;2023-05-10T04:39:43;18.50;99.90
36990;DHT22;22898;52.102;5.776;2023-05-10T04:42:09;18.70;99.90
36990;DHT22;22898;52.102;5.776;2023-05-10T04:44:35;18.80;99.90
36990;DHT22;22898;52.102;5.776;2023-05-10T04:47:01;18.90;99.90
36990;DHT22;22898;52.102;5.776;2023-05-10T04:49:27;19.00;99.90
36990;DHT22;22898;52.102;5.776;2023-05-10T04:51:53;19.00;99.90
36990;DHT22;22898;52.102;5.776;2023-05-10T04:54:19;18.60;99.90
36990;DHT22;22898;52.102;5.776;2023-05-10T04:56:44;18.70;99.90
36990;DHT22;22898;52.102;5.776;2023-05-10T04:59:10;18.60;99.90
36990;DHT22;22898;52.102;5.776;2023-05-10T05:01:35;18.40;99.90
36990;DHT22;22898;52.102;5.776;2023-05-10T05:04:01;18.60;99.90
36990;DHT22;22898;52.102;5.776;2023-05-10T05:06:27;19.10;99.90
36990;DHT22;22898;52.102;5.776;2023-05-10T05:08:53;18.90;99.90
36990;DHT22;22898;52.102;5.776;2023-05-10T05:11:18;19.20;99.90
36990;DHT22;22898;52.102;5.776;2023-05-10T05:13:44;19.20;99.90
36990;DHT22;22898;52.102;5.776;2023-05-10T05:16:10;19.20;99.90
36990;DHT22;22898;52.102;5.776;2023-05-10T05:18:36;19.50;99.90
36990;DHT22;22898;52.102;5.776;2023-05-10T05:21:02;19.50;99.90
36990;DHT22;22898;52.102;5.776;2023-05-10T05:23:27;19.60;99.90
36990;DHT22;22898;52.102;5.776;2023-05-10T05:25:53;19.40;99.90
36990;DHT22;22898;52.102;5.776;2023-05-10T05:28:20;19.50;99.90
36990;DHT22;22898;52.102;5.776;2023-05-10T05:30:46;19.60;99.90
36990;DHT22;22898;52.102;5.776;2023-05-10T05:33:15;19.40;99.90
36990;DHT22;22898;52.102;5.776;2023-05-10T05:35:41;19.80;99.90
36990;DHT22;22898;52.102;5.776;2023-05-10T05:38:08;20.20;99.90
36990;DHT22;22898;52.102;5.776;2023-05-10T05:40:34;20.10;99.90
36990;DHT22;22898;52.102;5.776;2023-05-10T05:42:59;20.10;99.90
36990;DHT22;22898;52.102;5.776;2023-05-10T05:45:25;19.90;99.90
36990;DHT22;22898;52.102;5.776;2023-05-10T05:47:50;19.60;99.90
36990;DHT22;22898;52.102;5.776;2023-05-10T05:50:16;19.70;99.90
36990;DHT22;22898;52.102;5.776;2023-05-10T05:52:42;20.10;99.90
36990;DHT22;22898;52.102;5.776;2023-05-10T05:55:07;19.80;99.90
36990;DHT22;22898;52.102;5.776;2023-05-10T05:57:33;19.60;99.90
36990;DHT22;22898;52.102;5.776;2023-05-10T05:59:58;19.30;99.90
36990;DHT22;22898;52.102;5.776;2023-05-10T06:02:24;19.20;99.90
36990;DHT22;22898;52.102;5.776;2023-05-10T06:04:50;19.10;99.90
36990;DHT22;22898;52.102;5.776;2023-05-10T06:07:15;19.10;99.90
36990;DHT22;22898;52.102;5.776;2023-05-10T06:09:41;19.30;99.90
36990;DHT22;22898;52.102;5.776;2023-05-10T06:12:07;19.30;99.90
36990;DHT22;22898;52.102;5.776;2023-05-10T06:14:32;19.40;99.90
36990;DHT22;22898;52.102;5.776;2023-05-10T06:16:58;19.70;99.90
36990;DHT22;22898;52.102;5.776;2023-05-10T06:19:25;19.80;99.90
36990;DHT22;22898;52.102;5.776;2023-05-10T06:21:51;19.70;99.90
36990;DHT22;22898;52.102;5.776;2023-05-10T06:24:17;19.50;99.90
36990;DHT22;22898;52.102;5.776;2023-05-10T06:26:42;19.60;99.90
36990;DHT22;22898;52.102;5.776;2023-05-10T06:29:08;19.40;99.90
36990;DHT22;22898;52.102;5.776;2023-05-10T06:31:33;19.30;99.90
36990;DHT22;22898;52.102;5.776;2023-05-10T06:33:59;19.10;99.90
36990;DHT22;22898;52.102;5.776;2023-05-10T06:36:24;18.80;99.90
36990;DHT22;22898;52.102;5.776;2023-05-10T06:38:51;18.90;99.90
36990;DHT22;22898;52.102;5.776;2023-05-10T06:41:17;18.70;99.90
36990;DHT22;22898;52.102;5.776;2023-05-10T06:43:42;18.90;99.90
36990;DHT22;22898;52.102;5.776;2023-05-10T06:46:08;19.10;99.90
36990;DHT22;22898;52.102;5.776;2023-05-10T06:48:34;19.30;99.90
36990;DHT22;22898;52.102;5.776;2023-05-10T06:51:00;19.00;99.90
36990;DHT22;22898;52.102;5.776;2023-05-10T06:53:25;19.00;99.90
36990;DHT22;22898;52.102;5.776;2023-05-10T06:55:51;19.10;99.90
36990;DHT22;22898;52.102;5.776;2023-05-10T06:58:16;19.20;99.90
36990;DHT22;22898;52.102;5.776;2023-05-10T07:00:42;19.30;99.90
36990;DHT22;22898;52.102;5.776;2023-05-10T07:03:09;19.20;99.90
36990;DHT22;22898;52.102;5.776;2023-05-10T07:05:35;18.70;99.90
36990;DHT22;22898;52.102;5.776;2023-05-10T07:08:01;18.70;99.90
36990;DHT22;22898;52.102;5.776;2023-05-10T07:10:27;18.60;99.90
36990;DHT22;22898;52.102;5.776;2023-05-10T07:12:52;18.90;99.90
36990;DHT22;22898;52.102;5.776;2023-05-10T07:15:18;18.90;99.90
36990;DHT22;22898;52.102;5.776;2023-05-10T07:17:43;18.80;99.90
36990;DHT22;22898;52.102;5.776;2023-05-10T07:20:09;19.10;99.90
36990;DHT22;22898;52.102;5.776;2023-05-10T07:22:35;19.20;99.90
36990;DHT22;22898;52.102;5.776;2023-05-10T07:25:00;19.20;99.90
36990;DHT22;22898;52.102;5.776;2023-05-10T07:27:26;19.20;99.90
36990;DHT22;22898;52.102;5.776;2023-05-10T07:29:52;19.30;99.90
36990;DHT22;22898;52.102;5.776;2023-05-10T07:32:17;19.40;99.90
36990;DHT22;22898;52.102;5.776;2023-05-10T07:34:43;19.70;99.90
36990;DHT22;22898;52.102;5.776;2023-05-10T07:37:08;20.00;99.90
36990;DHT22;22898;52.102;5.776;2023-05-10T07:39:34;20.10;99.90
36990;DHT22;22898;52.102;5.776;2023-05-10T07:41:59;19.80;99.90
36990;DHT22;22898;52.102;5.776;2023-05-10T07:44:25;20.10;99.90
36990;DHT22;22898;52.102;5.776;2023-05-10T07:46:50;20.10;99.90
36990;DHT22;22898;52.102;5.776;2023-05-10T07:49:16;20.30;99.90
36990;DHT22;22898;52.102;5.776;2023-05-10T07:51:42;20.50;99.90
36990;DHT22;22898;52.102;5.776;2023-05-10T07:54:07;20.40;99.90
36990;DHT22;22898;52.102;5.776;2023-05-10T07:56:33;20.40;99.90
36990;DHT22;22898;52.102;5.776;2023-05-10T07:58:59;19.90;99.90
36990;DHT22;22898;52.102;5.776;2023-05-10T08:01:26;19.80;99.90
36990;DHT22;22898;52.102;5.776;2023-05-10T08:03:52;19.50;99.90
36990;DHT22;22898;52.102;5.776;2023-05-10T08:06:19;19.50;99.90
36990;DHT22;22898;52.102;5.776;2023-05-10T08:08:46;19.50;99.90
36990;DHT22;22898;52.102;5.776;2023-05-10T08:11:15;19.70;99.90
36990;DHT22;22898;52.102;5.776;2023-05-10T08:13:41;19.80;99.90
36990;DHT22;22898;52.102;5.776;2023-05-10T08:16:07;19.90;99.90
36990;DHT22;22898;52.102;5.776;2023-05-10T08:18:32;19.80;99.90
36990;DHT22;22898;52.102;5.776;2023-05-10T08:20:58;19.90;99.90
36990;DHT22;22898;52.102;5.776;2023-05-10T08:23:23;19.80;99.90
36990;DHT22;22898;52.102;5.776;2023-05-10T08:25:49;20.00;99.90
36990;DHT22;22898;52.102;5.776;2023-05-10T08:28:15;19.80;99.90
36990;DHT22;22898;52.102;5.776;2023-05-10T08:30:40;19.50;99.90
36990;DHT22;22898;52.102;5.776;2023-05-10T08:33:06;19.50;99.90
36990;DHT22;22898;52.102;5.776;2023-05-10T08:35:31;19.70;99.90
36990;DHT22;22898;52.102;5.776;2023-05-10T08:37:58;20.00;99.90
36990;DHT22;22898;52.102;5.776;2023-05-10T08:40:24;20.20;99.90
36990;DHT22;22898;52.102;5.776;2023-05-10T08:42:58;20.20;99.90
36990;DHT22;22898;52.102;5.776;2023-05-10T08:45:32;19.80;99.90
36990;DHT22;22898;52.102;5.776;2023-05-10T08:48:00;19.70;99.90
36990;DHT22;22898;52.102;5.776;2023-05-10T08:50:27;20.00;99.90
36990;DHT22;22898;52.102;5.776;2023-05-10T08:52:55;20.00;99.90
36990;DHT22;22898;52.102;5.776;2023-05-10T08:55:23;19.70;99.90
36990;DHT22;22898;52.102;5.776;2023-05-10T08:57:49;19.60;99.90
36990;DHT22;22898;52.102;5.776;2023-05-10T09:00:16;19.60;99.90
36990;DHT22;22898;52.102;5.776;2023-05-10T09:02:43;19.60;99.90
36990;DHT22;22898;52.102;5.776;2023-05-10T09:05:08;19.90;99.90
36990;DHT22;22898;52.102;5.776;2023-05-10T09:07:35;19.90;99.90
36990;DHT22;22898;52.102;5.776;2023-05-10T09:10:02;19.70;99.90
36990;DHT22;22898;52.102;5.776;2023-05-10T09:12:28;19.60;99.90
36990;DHT22;22898;52.102;5.776;2023-05-10T09:14:54;19.90;99.90
36990;DHT22;22898;52.102;5.776;2023-05-10T09:17:23;20.00;99.90
36990;DHT22;22898;52.102;5.776;2023-05-10T09:19:49;20.50;99.90
36990;DHT22;22898;52.102;5.776;2023-05-10T09:22:14;20.90;99.90
36990;DHT22;22898;52.102;5.776;2023-05-10T09:24:42;21.20;99.90
36990;DHT22;22898;52.102;5.776;2023-05-10T09:27:10;21.50;99.90
36990;DHT22;22898;52.102;5.776;2023-05-10T09:29:42;21.90;99.90
36990;DHT22;22898;52.102;5.776;2023-05-10T09:32:08;22.00;99.90
36990;DHT22;22898;52.102;5.776;2023-05-10T09:34:34;21.90;99.90
36990;DHT22;22898;52.102;5.776;2023-05-10T09:37:02;22.10;99.90
36990;DHT22;22898;52.102;5.776;2023-05-10T09:39:37;22.10;99.90
36990;DHT22;22898;52.102;5.776;2023-05-10T09:42:07;21.70;99.90
36990;DHT22;22898;52.102;5.776;2023-05-10T09:44:34;21.10;99.90
36990;DHT22;22898;52.102;5.776;2023-05-10T09:47:01;20.90;99.90
36990;DHT22;22898;52.102;5.776;2023-05-10T09:49:28;21.00;99.90
36990;DHT22;22898;52.102;5.776;2023-05-10T09:52:20;20.70;99.90
36990;DHT22;22898;52.102;5.776;2023-05-10T09:54:52;20.30;99.90
36990;DHT22;22898;52.102;5.776;2023-05-10T09:57:21;20.10;99.90
36990;DHT22;22898;52.102;5.776;2023-05-10T09:59:47;20.00;99.90
36990;DHT22;22898;52.102;5.776;2023-05-10T10:02:13;20.20;99.90
36990;DHT22;22898;52.102;5.776;2023-05-10T10:04:42;20.10;99.90
36990;DHT22;22898;52.102;5.776;2023-05-10T10:07:08;19.80;99.90
36990;DHT22;22898;52.102;5.776;2023-05-10T10:09:34;19.60;99.90
36990;DHT22;22898;52.102;5.776;2023-05-10T10:12:01;19.70;99.90
36990;DHT22;22898;52.102;5.776;2023-05-10T10:14:28;19.70;99.90
36990;DHT22;22898;52.102;5.776;2023-05-10T10:16:54;19.70;99.90
36990;DHT22;22898;52.102;5.776;2023-05-10T10:19:20;20.20;99.90
36990;DHT22;22898;52.102;5.776;2023-05-10T10:21:46;20.70;99.90
36990;DHT22;22898;52.102;5.776;2023-05-10T10:24:12;20.90;99.90
36990;DHT22;22898;52.102;5.776;2023-05-10T10:26:38;21.20;99.90
36990;DHT22;22898;52.102;5.776;2023-05-10T10:29:25;21.60;99.90
36990;DHT22;22898;52.102;5.776;2023-05-10T10:32:20;22.40;99.90
36990;DHT22;22898;52.102;5.776;2023-05-10T10:34:47;22.60;99.90
36990;DHT22;22898;52.102;5.776;2023-05-10T10:37:13;22.40;99.90
36990;DHT22;22898;52.102;5.776;2023-05-10T10:39:39;22.90;99.90
36990;DHT22;22898;52.102;5.776;2023-05-10T10:42:05;22.90;99.90
36990;DHT22;22898;52.102;5.776;2023-05-10T10:50:05;24.10;99.40
36990;DHT22;22898;52.102;5.776;2023-05-10T10:55:05;25.20;97.70
36990;DHT22;22898;52.102;5.776;2023-05-10T10:57:35;25.20;96.90
36990;DHT22;22898;52.102;5.776;2023-05-10T11:00:30;24.70;96.80
36990;DHT22;22898;52.102;5.776;2023-05-10T11:03:05;24.90;97.80
36990;DHT22;22898;52.102;5.776;2023-05-10T11:05:48;24.00;99.00
36990;DHT22;22898;52.102;5.776;2023-05-10T11:08:28;23.50;99.50
36990;DHT22;22898;52.102;5.776;2023-05-10T11:16:19;23.50;99.30
36990;DHT22;22898;52.102;5.776;2023-05-10T11:19:05;23.60;98.70
36990;DHT22;22898;52.102;5.776;2023-05-10T11:21:33;23.10;99.10
36990;DHT22;22898;52.102;5.776;2023-05-10T11:24:00;23.10;99.30
36990;DHT22;22898;52.102;5.776;2023-05-10T11:26:32;23.10;98.70
36990;DHT22;22898;52.102;5.776;2023-05-10T11:28:59;23.30;99.00
36990;DHT22;22898;52.102;5.776;2023-05-10T11:31:26;22.80;99.90
36990;DHT22;22898;52.102;5.776;2023-05-10T11:33:56;22.90;99.70
36990;DHT22;22898;52.102;5.776;2023-05-10T11:36:32;23.20;99.40
36990;DHT22;22898;52.102;5.776;2023-05-10T11:38:58;23.20;99.20
36990;DHT22;22898;52.102;5.776;2023-05-10T11:41:25;22.90;99.90
36990;DHT22;22898;52.102;5.776;2023-05-10T11:43:55;22.80;99.90
36990;DHT22;22898;52.102;5.776;2023-05-10T11:46:23;22.80;99.20
36990;DHT22;22898;52.102;5.776;2023-05-10T11:48:54;23.00;99.30
36990;DHT22;22898;52.102;5.776;2023-05-10T11:51:23;22.60;99.90
36990;DHT22;22898;52.102;5.776;2023-05-10T11:53:52;22.90;99.90
36990;DHT22;22898;52.102;5.776;2023-05-10T11:56:18;23.10;99.50
36990;DHT22;22898;52.102;5.776;2023-05-10T11:58:43;23.30;98.90
36990;DHT22;22898;52.102;5.776;2023-05-10T12:01:09;24.00;98.70
36990;DHT22;22898;52.102;5.776;2023-05-10T12:03:36;24.30;98.10
36990;DHT22;22898;52.102;5.776;2023-05-10T12:06:07;24.20;97.30
36990;DHT22;22898;52.102;5.776;2023-05-10T12:08:33;24.20;97.40
36990;DHT22;22898;52.102;5.776;2023-05-10T12:11:07;24.00;98.30
36990;DHT22;22898;52.102;5.776;2023-05-10T12:13:36;24.10;98.50
36990;DHT22;22898;52.102;5.776;2023-05-10T12:16:15;23.90;98.50
36990;DHT22;22898;52.102;5.776;2023-05-10T12:18:41;23.90;98.40
36990;DHT22;22898;52.102;5.776;2023-05-10T12:21:09;23.50;98.80
36990;DHT22;22898;52.102;5.776;2023-05-10T12:23:35;23.70;98.20
36990;DHT22;22898;52.102;5.776;2023-05-10T12:26:02;23.90;98.40
36990;DHT22;22898;52.102;5.776;2023-05-10T12:28:30;24.00;98.00
36990;DHT22;22898;52.102;5.776;2023-05-10T12:30:57;24.50;97.70
36990;DHT22;22898;52.102;5.776;2023-05-10T12:33:24;24.90;97.60
36990;DHT22;22898;52.102;5.776;2023-05-10T12:35:51;24.70;96.50
36990;DHT22;22898;52.102;5.776;2023-05-10T12:38:27;24.30;97.20
36990;DHT22;22898;52.102;5.776;2023-05-10T12:40:55;23.80;97.30
36990;DHT22;22898;52.102;5.776;2023-05-10T12:43:21;23.60;97.60
36990;DHT22;22898;52.102;5.776;2023-05-10T12:45:47;23.60;97.60
36990;DHT22;22898;52.102;5.776;2023-05-10T12:48:14;23.70;98.00
36990;DHT22;22898;52.102;5.776;2023-05-10T12:50:40;24.00;97.30
36990;DHT22;22898;52.102;5.776;2023-05-10T12:53:06;24.40;97.20
36990;DHT22;22898;52.102;5.776;2023-05-10T12:55:31;24.20;97.50
36990;DHT22;22898;52.102;5.776;2023-05-10T12:57:57;24.30;97.60
36990;DHT22;22898;52.102;5.776;2023-05-10T13:00:22;24.40;97.40
36990;DHT22;22898;52.102;5.776;2023-05-10T13:02:48;24.50;96.70
36990;DHT22;22898;52.102;5.776;2023-05-10T13:05:13;24.60;96.50
36990;DHT22;22898;52.102;5.776;2023-05-10T13:07:39;24.20;97.20
36990;DHT22;22898;52.102;5.776;2023-05-10T13:10:06;24.20;96.80
36990;DHT22;22898;52.102;5.776;2023-05-10T13:12:31;24.60;96.80
36990;DHT22;22898;52.102;5.776;2023-05-10T13:14:57;24.40;97.10
36990;DHT22;22898;52.102;5.776;2023-05-10T13:17:23;23.60;98.00
36990;DHT22;22898;52.102;5.776;2023-05-10T13:19:48;22.90;98.70
36990;DHT22;22898;52.102;5.776;2023-05-10T13:22:14;23.60;98.00
36990;DHT22;22898;52.102;5.776;2023-05-10T13:24:40;23.40;98.40
36990;DHT22;22898;52.102;5.776;2023-05-10T13:27:05;23.50;97.80
36990;DHT22;22898;52.102;5.776;2023-05-10T13:29:31;24.00;97.90
36990;DHT22;22898;52.102;5.776;2023-05-10T13:31:58;24.10;98.00
36990;DHT22;22898;52.102;5.776;2023-05-10T13:34:24;24.60;96.60
36990;DHT22;22898;52.102;5.776;2023-05-10T13:36:50;24.40;97.40
36990;DHT22;22898;52.102;5.776;2023-05-10T13:39:16;24.70;97.20
36990;DHT22;22898;52.102;5.776;2023-05-10T13:41:42;24.80;96.10
36990;DHT22;22898;52.102;5.776;2023-05-10T13:44:07;24.50;96.60
36990;DHT22;22898;52.102;5.776;2023-05-10T13:46:33;24.40;96.80
36990;DHT22;22898;52.102;5.776;2023-05-10T13:48:58;24.10;97.50
36990;DHT22;22898;52.102;5.776;2023-05-10T13:51:24;23.80;98.00
36990;DHT22;22898;52.102;5.776;2023-05-10T13:53:49;23.20;98.40
36990;DHT22;22898;52.102;5.776;2023-05-10T13:56:15;22.90;99.20
36990;DHT22;22898;52.102;5.776;2023-05-10T13:58:41;22.60;99.80
36990;DHT22;22898;52.102;5.776;2023-05-10T14:01:06;22.40;99.90
36990;DHT22;22898;52.102;5.776;2023-05-10T14:03:32;22.40;99.90
36990;DHT22;22898;52.102;5.776;2023-05-10T14:05:58;23.10;99.40
36990;DHT22;22898;52.102;5.776;2023-05-10T14:08:24;23.60;99.40
36990;DHT22;22898;52.102;5.776;2023-05-10T14:10:49;23.20;99.90
36990;DHT22;22898;52.102;5.776;2023-05-10T14:13:16;22.00;99.90
36990;DHT22;22898;52.102;5.776;2023-05-10T14:15:42;21.40;99.90
36990;DHT22;22898;52.102;5.776;2023-05-10T14:18:08;20.90;99.90
36990;DHT22;22898;52.102;5.776;2023-05-10T14:20:33;20.50;99.90
36990;DHT22;22898;52.102;5.776;2023-05-10T14:22:59;20.40;99.90
36990;DHT22;22898;52.102;5.776;2023-05-10T14:25:25;20.20;99.90
36990;DHT22;22898;52.102;5.776;2023-05-10T14:27:51;20.50;99.90
36990;DHT22;22898;52.102;5.776;2023-05-10T14:30:19;20.40;99.90
36990;DHT22;22898;52.102;5.776;2023-05-10T14:32:45;19.90;99.90
36990;DHT22;22898;52.102;5.776;2023-05-10T14:35:10;19.90;99.90
36990;DHT22;22898;52.102;5.776;2023-05-10T14:37:36;20.00;99.90
36990;DHT22;22898;52.102;5.776;2023-05-10T14:40:02;20.40;99.90
36990;DHT22;22898;52.102;5.776;2023-05-10T14:42:29;19.90;99.90
36990;DHT22;22898;52.102;5.776;2023-05-10T14:44:56;19.80;99.90
36990;DHT22;22898;52.102;5.776;2023-05-10T14:47:22;20.00;99.90
36990;DHT22;22898;52.102;5.776;2023-05-10T14:49:47;20.20;99.90
36990;DHT22;22898;52.102;5.776;2023-05-10T14:52:13;20.70;99.90
36990;DHT22;22898;52.102;5.776;2023-05-10T14:54:39;20.80;99.90
36990;DHT22;22898;52.102;5.776;2023-05-10T14:57:06;20.90;99.90
36990;DHT22;22898;52.102;5.776;2023-05-10T14:59:32;21.00;99.90
36990;DHT22;22898;52.102;5.776;2023-05-10T15:01:58;21.10;99.90
36990;DHT22;22898;52.102;5.776;2023-05-10T15:04:24;20.80;99.90
36990;DHT22;22898;52.102;5.776;2023-05-10T15:06:49;20.70;99.90
36990;DHT22;22898;52.102;5.776;2023-05-10T15:09:15;20.80;99.90
36990;DHT22;22898;52.102;5.776;2023-05-10T15:11:41;20.60;99.90
36990;DHT22;22898;52.102;5.776;2023-05-10T15:14:07;20.40;99.90
36990;DHT22;22898;52.102;5.776;2023-05-10T15:16:33;20.60;99.90
36990;DHT22;22898;52.102;5.776;2023-05-10T15:18:58;20.80;99.90
36990;DHT22;22898;52.102;5.776;2023-05-10T15:21:24;21.00;99.90
36990;DHT22;22898;52.102;5.776;2023-05-10T15:23:49;21.10;99.90
36990;DHT22;22898;52.102;5.776;2023-05-10T15:26:15;21.50;99.90
36990;DHT22;22898;52.102;5.776;2023-05-10T15:28:40;21.50;99.90
36990;DHT22;22898;52.102;5.776;2023-05-10T15:31:06;21.50;99.90
36990;DHT22;22898;52.102;5.776;2023-05-10T15:33:31;21.70;99.90
36990;DHT22;22898;52.102;5.776;2023-05-10T15:35:57;21.80;99.90
36990;DHT22;22898;52.102;5.776;2023-05-10T15:38:25;21.90;99.90
36990;DHT22;22898;52.102;5.776;2023-05-10T15:40:51;22.20;99.90
36990;DHT22;22898;52.102;5.776;2023-05-10T15:43:18;22.40;99.90
36990;DHT22;22898;52.102;5.776;2023-05-10T15:45:43;22.00;99.90
36990;DHT22;22898;52.102;5.776;2023-05-10T15:48:09;21.70;99.90
36990;DHT22;22898;52.102;5.776;2023-05-10T15:50:34;21.80;99.90